sensor_id;sensor_type;location;lat;lon;timestamp;temperature;humidity
56861;DHT22;42744;51.094;3.490;2023-02-01T00:00:12;6.00;99.90
56861;DHT22;42744;51.094;3.490;2023-02-01T00:02:39;6.00;99.90
56861;DHT22;42744;51.094;3.490;2023-02-01T00:05:10;5.90;99.90
56861;DHT22;42744;51.094;3.490;2023-02-01T00:07:37;5.90;99.90
56861;DHT22;42744;51.094;3.490;2023-02-01T00:10:04;5.80;99.90
56861;DHT22;42744;51.094;3.490;2023-02-01T00:12:31;5.80;99.90
56861;DHT22;42744;51.094;3.490;2023-02-01T00:14:57;5.80;99.90
56861;DHT22;42744;51.094;3.490;2023-02-01T00:17:24;5.80;99.90
56861;DHT22;42744;51.094;3.490;2023-02-01T00:19:50;5.70;99.90
56861;DHT22;42744;51.094;3.490;2023-02-01T00:22:16;5.70;99.90
56861;DHT22;42744;51.094;3.490;2023-02-01T00:24:42;5.70;99.90
56861;DHT22;42744;51.094;3.490;2023-02-01T00:27:08;5.60;99.90
56861;DHT22;42744;51.094;3.490;2023-02-01T00:29:34;5.60;99.90
56861;DHT22;42744;51.094;3.490;2023-02-01T00:32:00;5.50;99.90
56861;DHT22;42744;51.094;3.490;2023-02-01T00:34:27;5.50;99.90
56861;DHT22;42744;51.094;3.490;2023-02-01T00:36:53;5.40;99.90
56861;DHT22;42744;51.094;3.490;2023-02-01T00:39:19;5.40;99.90
56861;DHT22;42744;51.094;3.490;2023-02-01T00:41:45;5.30;99.90
56861;DHT22;42744;51.094;3.490;2023-02-01T00:44:11;5.30;99.90
56861;DHT22;42744;51.094;3.490;2023-02-01T00:46:37;5.20;99.90
56861;DHT22;42744;51.094;3.490;2023-02-01T00:49:03;5.10;99.90
56861;DHT22;42744;51.094;3.490;2023-02-01T00:51:30;5.00;99.90
56861;DHT22;42744;51.094;3.490;2023-02-01T00:53:56;5.00;99.90
56861;DHT22;42744;51.094;3.490;2023-02-01T00:56:22;4.90;99.90
56861;DHT22;42744;51.094;3.490;2023-02-01T00:58:49;4.90;99.90
56861;DHT22;42744;51.094;3.490;2023-02-01T01:01:26;4.80;99.90
56861;DHT22;42744;51.094;3.490;2023-02-01T01:03:59;4.80;99.90
56861;DHT22;42744;51.094;3.490;2023-02-01T01:06:28;4.80;99.90
56861;DHT22;42744;51.094;3.490;2023-02-01T01:08:56;4.70;99.90
56861;DHT22;42744;51.094;3.490;2023-02-01T01:11:25;4.70;99.90
56861;DHT22;42744;51.094;3.490;2023-02-01T01:13:53;4.60;99.90
56861;DHT22;42744;51.094;3.490;2023-02-01T01:16:20;4.60;99.90
56861;DHT22;42744;51.094;3.490;2023-02-01T01:18:46;4.60;99.90
56861;DHT22;42744;51.094;3.490;2023-02-01T01:21:15;4.50;99.90
56861;DHT22;42744;51.094;3.490;2023-02-01T01:23:42;4.50;99.90
56861;DHT22;42744;51.094;3.490;2023-02-01T01:26:11;4.40;99.90
56861;DHT22;42744;51.094;3.490;2023-02-01T01:28:39;4.40;99.90
56861;DHT22;42744;51.094;3.490;2023-02-01T01:31:08;4.40;99.90
56861;DHT22;42744;51.094;3.490;2023-02-01T01:33:35;4.30;99.90
56861;DHT22;42744;51.094;3.490;2023-02-01T01:36:01;4.30;99.90
56861;DHT22;42744;51.094;3.490;2023-02-01T01:38:27;4.30;99.90
56861;DHT22;42744;51.094;3.490;2023-02-01T01:40:53;4.20;99.90
56861;DHT22;42744;51.094;3.490;2023-02-01T01:43:20;4.20;99.90
56861;DHT22;42744;51.094;3.490;2023-02-01T01:45:49;4.20;99.90
56861;DHT22;42744;51.094;3.490;2023-02-01T01:48:26;4.20;99.90
56861;DHT22;42744;51.094;3.490;2023-02-01T01:51:02;4.20;99.90
56861;DHT22;42744;51.094;3.490;2023-02-01T01:53:43;4.10;99.90
56861;DHT22;42744;51.094;3.490;2023-02-01T01:56:11;4.10;99.90
56861;DHT22;42744;51.094;3.490;2023-02-01T01:58:38;4.10;99.90
56861;DHT22;42744;51.094;3.490;2023-02-01T02:01:05;4.10;99.90
56861;DHT22;42744;51.094;3.490;2023-02-01T02:03:40;4.10;99.90
56861;DHT22;42744;51.094;3.490;2023-02-01T02:07:00;4.10;99.90
56861;DHT22;42744;51.094;3.490;2023-02-01T02:09:01;4.10;99.90
56861;DHT22;42744;51.094;3.490;2023-02-01T02:11:27;4.10;99.90
56861;DHT22;42744;51.094;3.490;2023-02-01T02:13:55;4.20;99.90
56861;DHT22;42744;51.094;3.490;2023-02-01T02:24:56;4.50;99.90
56861;DHT22;42744;51.094;3.490;2023-02-01T02:38:13;4.60;99.90
56861;DHT22;42744;51.094;3.490;2023-02-01T02:41:03;4.70;99.90
56861;DHT22;42744;51.094;3.490;2023-02-01T02:43:47;4.70;99.90
56861;DHT22;42744;51.094;3.490;2023-02-01T02:46:39;4.70;99.90
56861;DHT22;42744;51.094;3.490;2023-02-01T02:49:44;4.80;99.90
56861;DHT22;42744;51.094;3.490;2023-02-01T02:52:38;4.80;99.90
56861;DHT22;42744;51.094;3.490;2023-02-01T02:55:26;4.80;99.90
56861;DHT22;42744;51.094;3.490;2023-02-01T02:57:55;4.90;99.90
56861;DHT22;42744;51.094;3.490;2023-02-01T03:00:41;4.90;99.90
56861;DHT22;42744;51.094;3.490;2023-02-01T03:03:26;4.90;99.90
56861;DHT22;42744;51.094;3.490;2023-02-01T03:06:16;5.00;99.90
56861;DHT22;42744;51.094;3.490;2023-02-01T03:08:44;5.00;99.90
56861;DHT22;42744;51.094;3.490;2023-02-01T03:11:13;5.10;99.90
56861;DHT22;42744;51.094;3.490;2023-02-01T03:13:58;5.10;99.90
56861;DHT22;42744;51.094;3.490;2023-02-01T03:16:54;5.10;99.90
56861;DHT22;42744;51.094;3.490;2023-02-01T03:19:35;5.10;99.90
56861;DHT22;42744;51.094;3.490;2023-02-01T03:22:10;5.00;99.90
56861;DHT22;42744;51.094;3.490;2023-02-01T03:25:25;5.00;99.90
56861;DHT22;42744;51.094;3.490;2023-02-01T03:27:36;5.00;99.90
56861;DHT22;42744;51.094;3.490;2023-02-01T03:30:09;5.00;99.90
56861;DHT22;42744;51.094;3.490;2023-02-01T03:32:39;5.00;99.90
56861;DHT22;42744;51.094;3.490;2023-02-01T03:38:29;5.00;99.90
56861;DHT22;42744;51.094;3.490;2023-02-01T03:41:23;4.90;99.90
56861;DHT22;42744;51.094;3.490;2023-02-01T03:47:00;4.80;99.90
56861;DHT22;42744;51.094;3.490;2023-02-01T03:49:46;4.80;99.90
56861;DHT22;42744;51.094;3.490;2023-02-01T03:52:16;4.70;99.90
56861;DHT22;42744;51.094;3.490;2023-02-01T03:54:45;4.70;99.90
56861;DHT22;42744;51.094;3.490;2023-02-01T03:57:14;4.70;99.90
56861;DHT22;42744;51.094;3.490;2023-02-01T03:59:43;4.60;99.90
56861;DHT22;42744;51.094;3.490;2023-02-01T04:02:11;4.60;99.90
56861;DHT22;42744;51.094;3.490;2023-02-01T04:04:37;4.50;99.90
56861;DHT22;42744;51.094;3.490;2023-02-01T04:07:04;4.40;99.90
56861;DHT22;42744;51.094;3.490;2023-02-01T04:09:30;4.40;99.90
56861;DHT22;42744;51.094;3.490;2023-02-01T04:11:56;4.30;99.90
56861;DHT22;42744;51.094;3.490;2023-02-01T04:14:22;4.30;99.90
56861;DHT22;42744;51.094;3.490;2023-02-01T04:16:48;4.30;99.90
56861;DHT22;42744;51.094;3.490;2023-02-01T04:19:14;4.30;99.90
56861;DHT22;42744;51.094;3.490;2023-02-01T04:21:43;4.30;99.90
56861;DHT22;42744;51.094;3.490;2023-02-01T04:24:09;4.20;99.90
56861;DHT22;42744;51.094;3.490;2023-02-01T04:26:36;4.20;99.90
56861;DHT22;42744;51.094;3.490;2023-02-01T04:29:02;4.20;99.90
56861;DHT22;42744;51.094;3.490;2023-02-01T04:31:28;4.20;99.90
56861;DHT22;42744;51.094;3.490;2023-02-01T04:33:55;4.10;99.90
56861;DHT22;42744;51.094;3.490;2023-02-01T04:36:23;4.10;99.90
56861;DHT22;42744;51.094;3.490;2023-02-01T04:38:50;4.10;99.90
56861;DHT22;42744;51.094;3.490;2023-02-01T04:41:16;4.00;99.90
56861;DHT22;42744;51.094;3.490;2023-02-01T04:43:46;4.00;99.90
56861;DHT22;42744;51.094;3.490;2023-02-01T04:46:12;4.00;99.90
56861;DHT22;42744;51.094;3.490;2023-02-01T04:48:39;4.00;99.90
56861;DHT22;42744;51.094;3.490;2023-02-01T04:51:05;4.00;99.90
56861;DHT22;42744;51.094;3.490;2023-02-01T04:53:31;4.00;99.90
56861;DHT22;42744;51.094;3.490;2023-02-01T04:55:57;3.90;99.90
56861;DHT22;42744;51.094;3.490;2023-02-01T04:58:23;3.90;99.90
56861;DHT22;42744;51.094;3.490;2023-02-01T05:00:49;3.90;99.90
56861;DHT22;42744;51.094;3.490;2023-02-01T05:03:18;3.90;99.90
56861;DHT22;42744;51.094;3.490;2023-02-01T05:05:44;3.90;99.90
56861;DHT22;42744;51.094;3.490;2023-02-01T05:08:10;3.90;99.90
56861;DHT22;42744;51.094;3.490;2023-02-01T05:10:36;3.90;99.90
56861;DHT22;42744;51.094;3.490;2023-02-01T05:13:08;3.90;99.90
56861;DHT22;42744;51.094;3.490;2023-02-01T05:15:54;3.90;99.90
56861;DHT22;42744;51.094;3.490;2023-02-01T05:18:20;3.90;99.90
56861;DHT22;42744;51.094;3.490;2023-02-01T05:20:46;3.90;99.90
56861;DHT22;42744;51.094;3.490;2023-02-01T05:23:12;4.00;99.90
56861;DHT22;42744;51.094;3.490;2023-02-01T05:25:38;4.00;99.90
56861;DHT22;42744;51.094;3.490;2023-02-01T05:28:04;4.00;99.90
56861;DHT22;42744;51.094;3.490;2023-02-01T05:30:30;4.00;99.90
56861;DHT22;42744;51.094;3.490;2023-02-01T05:32:58;4.00;99.90
56861;DHT22;42744;51.094;3.490;2023-02-01T05:35:24;4.00;99.90
56861;DHT22;42744;51.094;3.490;2023-02-01T05:37:50;4.00;99.90
56861;DHT22;42744;51.094;3.490;2023-02-01T05:40:16;4.00;99.90
56861;DHT22;42744;51.094;3.490;2023-02-01T05:42:42;4.00;99.90
56861;DHT22;42744;51.094;3.490;2023-02-01T05:45:08;4.00;99.90
56861;DHT22;42744;51.094;3.490;2023-02-01T05:47:34;3.90;99.90
56861;DHT22;42744;51.094;3.490;2023-02-01T05:50:04;3.90;99.90
56861;DHT22;42744;51.094;3.490;2023-02-01T05:52:31;3.90;99.90
56861;DHT22;42744;51.094;3.490;2023-02-01T05:54:57;3.90;99.90
56861;DHT22;42744;51.094;3.490;2023-02-01T05:57:24;3.90;99.90
56861;DHT22;42744;51.094;3.490;2023-02-01T05:59:50;3.80;99.90
56861;DHT22;42744;51.094;3.490;2023-02-01T06:02:16;3.80;99.90
56861;DHT22;42744;51.094;3.490;2023-02-01T06:04:42;3.80;99.90
56861;DHT22;42744;51.094;3.490;2023-02-01T06:07:08;3.70;99.90
56861;DHT22;42744;51.094;3.490;2023-02-01T06:09:36;3.70;99.90
56861;DHT22;42744;51.094;3.490;2023-02-01T06:12:03;3.70;99.90
56861;DHT22;42744;51.094;3.490;2023-02-01T06:14:29;3.60;99.90
56861;DHT22;42744;51.094;3.490;2023-02-01T06:16:56;3.70;99.90
56861;DHT22;42744;51.094;3.490;2023-02-01T06:19:23;3.60;99.90
56861;DHT22;42744;51.094;3.490;2023-02-01T06:21:49;3.60;99.90
56861;DHT22;42744;51.094;3.490;2023-02-01T06:24:15;3.60;99.90
56861;DHT22;42744;51.094;3.490;2023-02-01T06:26:41;3.60;99.90
56861;DHT22;42744;51.094;3.490;2023-02-01T06:29:10;3.60;99.90
56861;DHT22;42744;51.094;3.490;2023-02-01T06:31:36;3.60;99.90
56861;DHT22;42744;51.094;3.490;2023-02-01T06:34:02;3.60;99.90
56861;DHT22;42744;51.094;3.490;2023-02-01T06:36:29;3.60;99.90
56861;DHT22;42744;51.094;3.490;2023-02-01T06:38:56;3.50;99.90
56861;DHT22;42744;51.094;3.490;2023-02-01T06:41:23;3.50;99.90
56861;DHT22;42744;51.094;3.490;2023-02-01T06:43:49;3.50;99.90
56861;DHT22;42744;51.094;3.490;2023-02-01T06:46:15;3.50;99.90
56861;DHT22;42744;51.094;3.490;2023-02-01T06:48:41;3.50;99.90
56861;DHT22;42744;51.094;3.490;2023-02-01T06:51:22;3.50;99.90
56861;DHT22;42744;51.094;3.490;2023-02-01T06:53:48;3.50;99.90
56861;DHT22;42744;51.094;3.490;2023-02-01T06:56:14;3.50;99.90
56861;DHT22;42744;51.094;3.490;2023-02-01T06:58:40;3.50;99.90
56861;DHT22;42744;51.094;3.490;2023-02-01T07:01:08;3.50;99.90
56861;DHT22;42744;51.094;3.490;2023-02-01T07:03:35;3.50;99.90
56861;DHT22;42744;51.094;3.490;2023-02-01T07:06:01;3.50;99.90
56861;DHT22;42744;51.094;3.490;2023-02-01T07:08:28;3.60;99.90
56861;DHT22;42744;51.094;3.490;2023-02-01T07:10:54;3.60;99.90
56861;DHT22;42744;51.094;3.490;2023-02-01T07:13:20;3.60;99.90
56861;DHT22;42744;51.094;3.490;2023-02-01T07:15:46;3.60;99.90
56861;DHT22;42744;51.094;3.490;2023-02-01T07:18:14;3.60;99.90
56861;DHT22;42744;51.094;3.490;2023-02-01T07:20:41;3.70;99.90
56861;DHT22;42744;51.094;3.490;2023-02-01T07:23:10;3.70;99.90
56861;DHT22;42744;51.094;3.490;2023-02-01T07:25:36;3.70;99.90
56861;DHT22;42744;51.094;3.490;2023-02-01T07:28:02;3.70;99.90
56861;DHT22;42744;51.094;3.490;2023-02-01T07:30:28;3.80;99.90
56861;DHT22;42744;51.094;3.490;2023-02-01T07:32:54;3.80;99.90
56861;DHT22;42744;51.094;3.490;2023-02-01T07:35:20;3.80;99.90
56861;DHT22;42744;51.094;3.490;2023-02-01T07:37:46;3.90;99.90
56861;DHT22;42744;51.094;3.490;2023-02-01T07:40:12;4.00;99.90
56861;DHT22;42744;51.094;3.490;2023-02-01T07:42:38;4.10;99.90
56861;DHT22;42744;51.094;3.490;2023-02-01T07:45:05;4.20;99.90
56861;DHT22;42744;51.094;3.490;2023-02-01T07:47:31;4.20;99.90
56861;DHT22;42744;51.094;3.490;2023-02-01T07:49:57;4.30;99.90
56861;DHT22;42744;51.094;3.490;2023-02-01T07:52:23;4.30;99.90
56861;DHT22;42744;51.094;3.490;2023-02-01T07:54:49;4.40;99.90
56861;DHT22;42744;51.094;3.490;2023-02-01T07:57:15;4.40;99.90
56861;DHT22;42744;51.094;3.490;2023-02-01T07:59:41;4.40;99.90
56861;DHT22;42744;51.094;3.490;2023-02-01T08:02:27;4.50;99.90
56861;DHT22;42744;51.094;3.490;2023-02-01T08:04:54;4.60;99.90
56861;DHT22;42744;51.094;3.490;2023-02-01T08:07:20;4.60;99.90
56861;DHT22;42744;51.094;3.490;2023-02-01T08:09:46;4.70;99.90
56861;DHT22;42744;51.094;3.490;2023-02-01T08:12:12;4.70;99.90
56861;DHT22;42744;51.094;3.490;2023-02-01T08:14:38;4.80;99.90
56861;DHT22;42744;51.094;3.490;2023-02-01T08:17:05;4.80;99.90
56861;DHT22;42744;51.094;3.490;2023-02-01T08:19:32;4.90;99.90
56861;DHT22;42744;51.094;3.490;2023-02-01T08:21:58;4.90;99.90
56861;DHT22;42744;51.094;3.490;2023-02-01T08:24:25;5.00;99.90
56861;DHT22;42744;51.094;3.490;2023-02-01T08:26:51;5.10;99.90
56861;DHT22;42744;51.094;3.490;2023-02-01T08:29:17;5.10;99.90
56861;DHT22;42744;51.094;3.490;2023-02-01T08:31:43;5.20;99.90
56861;DHT22;42744;51.094;3.490;2023-02-01T08:34:11;5.20;99.90
56861;DHT22;42744;51.094;3.490;2023-02-01T08:36:38;5.30;99.90
56861;DHT22;42744;51.094;3.490;2023-02-01T08:39:04;5.40;99.90
56861;DHT22;42744;51.094;3.490;2023-02-01T08:41:34;5.50;99.90
56861;DHT22;42744;51.094;3.490;2023-02-01T08:44:00;5.60;99.90
56861;DHT22;42744;51.094;3.490;2023-02-01T08:46:27;5.70;99.90
56861;DHT22;42744;51.094;3.490;2023-02-01T08:48:53;5.80;99.90
56861;DHT22;42744;51.094;3.490;2023-02-01T08:51:21;5.90;99.90
56861;DHT22;42744;51.094;3.490;2023-02-01T08:53:48;6.00;99.90
56861;DHT22;42744;51.094;3.490;2023-02-01T08:56:16;6.20;99.90
56861;DHT22;42744;51.094;3.490;2023-02-01T08:58:43;6.30;99.90
56861;DHT22;42744;51.094;3.490;2023-02-01T09:01:14;6.40;99.90
56861;DHT22;42744;51.094;3.490;2023-02-01T09:03:41;6.60;99.90
56861;DHT22;42744;51.094;3.490;2023-02-01T09:06:09;6.60;99.90
56861;DHT22;42744;51.094;3.490;2023-02-01T09:08:37;6.70;99.90
56861;DHT22;42744;51.094;3.490;2023-02-01T09:11:11;6.80;99.90
56861;DHT22;42744;51.094;3.490;2023-02-01T09:13:37;6.80;99.90
56861;DHT22;42744;51.094;3.490;2023-02-01T09:16:03;6.90;99.90
56861;DHT22;42744;51.094;3.490;2023-02-01T09:18:30;6.90;99.90
56861;DHT22;42744;51.094;3.490;2023-02-01T09:20:56;7.00;99.90
56861;DHT22;42744;51.094;3.490;2023-02-01T09:23:22;7.00;99.90
56861;DHT22;42744;51.094;3.490;2023-02-01T09:25:48;7.10;99.90
56861;DHT22;42744;51.094;3.490;2023-02-01T09:28:18;7.20;99.90
56861;DHT22;42744;51.094;3.490;2023-02-01T09:30:44;7.30;99.90
56861;DHT22;42744;51.094;3.490;2023-02-01T09:33:10;7.40;99.90
56861;DHT22;42744;51.094;3.490;2023-02-01T09:35:36;7.60;99.90
56861;DHT22;42744;51.094;3.490;2023-02-01T09:38:03;7.80;99.90
56861;DHT22;42744;51.094;3.490;2023-02-01T09:40:30;8.00;99.90
56861;DHT22;42744;51.094;3.490;2023-02-01T09:43:13;8.10;99.90
56861;DHT22;42744;51.094;3.490;2023-02-01T09:48:38;8.40;99.90
56861;DHT22;42744;51.094;3.490;2023-02-01T09:51:13;8.60;99.90
56861;DHT22;42744;51.094;3.490;2023-02-01T09:53:57;8.60;99.90
56861;DHT22;42744;51.094;3.490;2023-02-01T09:56:29;8.60;99.90
56861;DHT22;42744;51.094;3.490;2023-02-01T10:01:40;8.60;99.90
56861;DHT22;42744;51.094;3.490;2023-02-01T10:04:11;8.60;99.90
56861;DHT22;42744;51.094;3.490;2023-02-01T10:07:02;8.60;99.90
56861;DHT22;42744;51.094;3.490;2023-02-01T10:09:52;8.70;99.90
56861;DHT22;42744;51.094;3.490;2023-02-01T10:18:52;8.90;99.90
56861;DHT22;42744;51.094;3.490;2023-02-01T10:26:45;9.00;99.90
56861;DHT22;42744;51.094;3.490;2023-02-01T10:29:22;9.00;99.90
56861;DHT22;42744;51.094;3.490;2023-02-01T10:31:50;9.00;99.90
56861;DHT22;42744;51.094;3.490;2023-02-01T10:34:26;8.90;99.90
56861;DHT22;42744;51.094;3.490;2023-02-01T10:39:48;9.20;99.90
56861;DHT22;42744;51.094;3.490;2023-02-01T10:42:19;9.60;99.90
56861;DHT22;42744;51.094;3.490;2023-02-01T10:44:46;9.80;99.90
56861;DHT22;42744;51.094;3.490;2023-02-01T10:47:14;10.10;99.90
56861;DHT22;42744;51.094;3.490;2023-02-01T10:52:29;10.50;99.90
56861;DHT22;42744;51.094;3.490;2023-02-01T10:54:56;10.70;99.90
56861;DHT22;42744;51.094;3.490;2023-02-01T10:57:25;10.90;99.90
56861;DHT22;42744;51.094;3.490;2023-02-01T10:59:52;10.90;99.90
56861;DHT22;42744;51.094;3.490;2023-02-01T11:02:26;11.00;99.90
56861;DHT22;42744;51.094;3.490;2023-02-01T11:05:23;11.10;99.90
56861;DHT22;42744;51.094;3.490;2023-02-01T11:07:53;11.10;99.90
56861;DHT22;42744;51.094;3.490;2023-02-01T11:10:40;11.00;99.90
56861;DHT22;42744;51.094;3.490;2023-02-01T11:13:18;11.00;99.90
56861;DHT22;42744;51.094;3.490;2023-02-01T11:15:54;11.00;99.90
56861;DHT22;42744;51.094;3.490;2023-02-01T11:18:27;10.80;99.90
56861;DHT22;42744;51.094;3.490;2023-02-01T11:20:53;11.00;99.90
56861;DHT22;42744;51.094;3.490;2023-02-01T11:23:25;11.30;99.90
56861;DHT22;42744;51.094;3.490;2023-02-01T11:25:58;11.50;99.90
56861;DHT22;42744;51.094;3.490;2023-02-01T11:28:34;11.50;99.90
56861;DHT22;42744;51.094;3.490;2023-02-01T11:31:08;11.20;99.90
56861;DHT22;42744;51.094;3.490;2023-02-01T11:33:37;11.00;99.90
56861;DHT22;42744;51.094;3.490;2023-02-01T11:36:26;11.20;99.90
56861;DHT22;42744;51.094;3.490;2023-02-01T11:44:39;11.40;99.90
56861;DHT22;42744;51.094;3.490;2023-02-01T11:47:23;11.60;99.90
56861;DHT22;42744;51.094;3.490;2023-02-01T11:49:52;11.90;99.90
56861;DHT22;42744;51.094;3.490;2023-02-01T11:52:35;12.10;99.90
56861;DHT22;42744;51.094;3.490;2023-02-01T12:07:19;12.30;99.90
56861;DHT22;42744;51.094;3.490;2023-02-01T12:15:46;12.10;99.90
56861;DHT22;42744;51.094;3.490;2023-02-01T12:20:59;12.50;99.90
56861;DHT22;42744;51.094;3.490;2023-02-01T12:26:04;11.90;99.90
56861;DHT22;42744;51.094;3.490;2023-02-01T12:29:02;11.70;99.90
56861;DHT22;42744;51.094;3.490;2023-02-01T12:40:06;11.10;99.90
56861;DHT22;42744;51.094;3.490;2023-02-01T12:42:41;11.30;99.90
56861;DHT22;42744;51.094;3.490;2023-02-01T12:47:57;11.70;99.90
56861;DHT22;42744;51.094;3.490;2023-02-01T12:50:43;11.80;99.90
56861;DHT22;42744;51.094;3.490;2023-02-01T12:55:54;11.70;99.90
56861;DHT22;42744;51.094;3.490;2023-02-01T12:58:25;11.50;99.90
56861;DHT22;42744;51.094;3.490;2023-02-01T13:01:02;11.40;99.90
56861;DHT22;42744;51.094;3.490;2023-02-01T13:09:40;11.30;99.90
56861;DHT22;42744;51.094;3.490;2023-02-01T13:12:17;11.30;99.90
56861;DHT22;42744;51.094;3.490;2023-02-01T13:14:58;11.40;99.90
56861;DHT22;42744;51.094;3.490;2023-02-01T13:17:31;11.70;99.90
56861;DHT22;42744;51.094;3.490;2023-02-01T13:20:28;11.80;99.90
56861;DHT22;42744;51.094;3.490;2023-02-01T13:25:47;11.80;99.90
56861;DHT22;42744;51.094;3.490;2023-02-01T13:36:45;11.00;99.90
56861;DHT22;42744;51.094;3.490;2023-02-01T13:44:43;10.70;99.90
56861;DHT22;42744;51.094;3.490;2023-02-01T13:47:32;10.50;99.90
56861;DHT22;42744;51.094;3.490;2023-02-01T13:52:59;10.70;99.90
56861;DHT22;42744;51.094;3.490;2023-02-01T13:55:29;10.80;99.90
56861;DHT22;42744;51.094;3.490;2023-02-01T14:00:38;10.60;99.90
56861;DHT22;42744;51.094;3.490;2023-02-01T14:13:26;10.30;99.90
56861;DHT22;42744;51.094;3.490;2023-02-01T14:21:29;10.00;99.90
56861;DHT22;42744;51.094;3.490;2023-02-01T14:24:26;9.90;99.90
56861;DHT22;42744;51.094;3.490;2023-02-01T14:26:55;9.80;99.90
56861;DHT22;42744;51.094;3.490;2023-02-01T14:34:37;9.60;99.90
56861;DHT22;42744;51.094;3.490;2023-02-01T14:37:32;9.60;99.90
56861;DHT22;42744;51.094;3.490;2023-02-01T14:40:01;9.50;99.90
56861;DHT22;42744;51.094;3.490;2023-02-01T14:53:12;9.40;99.90
56861;DHT22;42744;51.094;3.490;2023-02-01T14:55:55;9.30;99.90
56861;DHT22;42744;51.094;3.490;2023-02-01T15:09:28;9.30;99.90
56861;DHT22;42744;51.094;3.490;2023-02-01T15:14:44;9.30;99.90
56861;DHT22;42744;51.094;3.490;2023-02-01T15:17:21;9.30;99.90
56861;DHT22;42744;51.094;3.490;2023-02-01T15:22:59;9.20;99.90
56861;DHT22;42744;51.094;3.490;2023-02-01T15:25:31;9.20;99.90
56861;DHT22;42744;51.094;3.490;2023-02-01T15:27:58;9.20;99.90
56861;DHT22;42744;51.094;3.490;2023-02-01T15:30:25;9.10;99.90
56861;DHT22;42744;51.094;3.490;2023-02-01T15:33:07;9.10;99.90
56861;DHT22;42744;51.094;3.490;2023-02-01T15:43:37;9.00;99.90
56861;DHT22;42744;51.094;3.490;2023-02-01T15:46:08;9.00;99.90
56861;DHT22;42744;51.094;3.490;2023-02-01T15:48:41;9.00;99.90
56861;DHT22;42744;51.094;3.490;2023-02-01T15:51:17;9.00;99.90
56861;DHT22;42744;51.094;3.490;2023-02-01T15:53:46;9.00;99.90
56861;DHT22;42744;51.094;3.490;2023-02-01T15:56:13;8.90;99.90
56861;DHT22;42744;51.094;3.490;2023-02-01T15:58:42;8.90;99.90
56861;DHT22;42744;51.094;3.490;2023-02-01T16:01:12;8.90;99.90
56861;DHT22;42744;51.094;3.490;2023-02-01T16:03:42;8.80;99.90
56861;DHT22;42744;51.094;3.490;2023-02-01T16:11:31;8.80;99.90
56861;DHT22;42744;51.094;3.490;2023-02-01T16:13:59;8.80;99.90
56861;DHT22;42744;51.094;3.490;2023-02-01T16:16:27;8.70;99.90
56861;DHT22;42744;51.094;3.490;2023-02-01T16:18:54;8.70;99.90
56861;DHT22;42744;51.094;3.490;2023-02-01T16:21:20;8.60;99.90
56861;DHT22;42744;51.094;3.490;2023-02-01T16:23:50;8.60;99.90
56861;DHT22;42744;51.094;3.490;2023-02-01T16:26:17;8.60;99.90
56861;DHT22;42744;51.094;3.490;2023-02-01T16:28:43;8.60;99.90
56861;DHT22;42744;51.094;3.490;2023-02-01T16:31:14;8.60;99.90
56861;DHT22;42744;51.094;3.490;2023-02-01T16:33:54;8.50;99.90
56861;DHT22;42744;51.094;3.490;2023-02-01T16:36:20;8.50;99.90
56861;DHT22;42744;51.094;3.490;2023-02-01T16:38:47;8.50;99.90
56861;DHT22;42744;51.094;3.490;2023-02-01T16:41:19;8.50;99.90
56861;DHT22;42744;51.094;3.490;2023-02-01T16:43:45;8.40;99.90
56861;DHT22;42744;51.094;3.490;2023-02-01T16:46:16;8.40;99.90
56861;DHT22;42744;51.094;3.490;2023-02-01T16:48:46;8.40;99.90
56861;DHT22;42744;51.094;3.490;2023-02-01T16:51:15;8.40;99.90
56861;DHT22;42744;51.094;3.490;2023-02-01T16:53:43;8.40;99.90
56861;DHT22;42744;51.094;3.490;2023-02-01T16:56:23;8.40;99.90
56861;DHT22;42744;51.094;3.490;2023-02-01T16:58:51;8.40;99.90
56861;DHT22;42744;51.094;3.490;2023-02-01T17:01:18;8.50;99.90
56861;DHT22;42744;51.094;3.490;2023-02-01T17:03:45;8.40;99.90
56861;DHT22;42744;51.094;3.490;2023-02-01T17:06:16;8.40;99.90
56861;DHT22;42744;51.094;3.490;2023-02-01T17:08:55;8.40;99.90
56861;DHT22;42744;51.094;3.490;2023-02-01T17:11:24;8.40;99.90
56861;DHT22;42744;51.094;3.490;2023-02-01T17:13:50;8.40;99.90
56861;DHT22;42744;51.094;3.490;2023-02-01T17:16:26;8.40;99.90
56861;DHT22;42744;51.094;3.490;2023-02-01T17:18:55;8.40;99.90
56861;DHT22;42744;51.094;3.490;2023-02-01T17:21:23;8.40;99.90
56861;DHT22;42744;51.094;3.490;2023-02-01T17:23:49;8.40;99.90
56861;DHT22;42744;51.094;3.490;2023-02-01T17:26:19;8.40;99.90
56861;DHT22;42744;51.094;3.490;2023-02-01T17:28:45;8.40;99.90
56861;DHT22;42744;51.094;3.490;2023-02-01T17:31:14;8.40;99.90
56861;DHT22;42744;51.094;3.490;2023-02-01T17:33:42;8.30;99.90
56861;DHT22;42744;51.094;3.490;2023-02-01T17:36:16;8.30;99.90
56861;DHT22;42744;51.094;3.490;2023-02-01T17:38:43;8.30;99.90
56861;DHT22;42744;51.094;3.490;2023-02-01T17:41:13;8.30;99.90
56861;DHT22;42744;51.094;3.490;2023-02-01T17:43:39;8.30;99.90
56861;DHT22;42744;51.094;3.490;2023-02-01T17:46:14;8.30;99.90
56861;DHT22;42744;51.094;3.490;2023-02-01T17:48:41;8.30;99.90
56861;DHT22;42744;51.094;3.490;2023-02-01T17:55:05;8.30;99.90
56861;DHT22;42744;51.094;3.490;2023-02-01T17:57:39;8.30;99.90
56861;DHT22;42744;51.094;3.490;2023-02-01T18:00:06;8.20;99.90
56861;DHT22;42744;51.094;3.490;2023-02-01T18:02:32;8.20;99.90
56861;DHT22;42744;51.094;3.490;2023-02-01T18:04:58;8.20;99.90
56861;DHT22;42744;51.094;3.490;2023-02-01T18:07:25;8.20;99.90
56861;DHT22;42744;51.094;3.490;2023-02-01T18:09:51;8.20;99.90
56861;DHT22;42744;51.094;3.490;2023-02-01T18:12:20;8.20;99.90
56861;DHT22;42744;51.094;3.490;2023-02-01T18:14:48;8.30;99.90
56861;DHT22;42744;51.094;3.490;2023-02-01T18:17:14;8.30;99.90
56861;DHT22;42744;51.094;3.490;2023-02-01T18:19:40;8.30;99.90
56861;DHT22;42744;51.094;3.490;2023-02-01T18:22:12;8.30;99.90
56861;DHT22;42744;51.094;3.490;2023-02-01T18:24:40;8.30;99.90
56861;DHT22;42744;51.094;3.490;2023-02-01T18:27:06;8.30;99.90
56861;DHT22;42744;51.094;3.490;2023-02-01T18:29:33;8.30;99.90
56861;DHT22;42744;51.094;3.490;2023-02-01T18:31:59;8.30;99.90
56861;DHT22;42744;51.094;3.490;2023-02-01T18:34:25;8.30;99.90
56861;DHT22;42744;51.094;3.490;2023-02-01T18:36:52;8.30;99.90
56861;DHT22;42744;51.094;3.490;2023-02-01T18:39:18;8.30;99.90
56861;DHT22;42744;51.094;3.490;2023-02-01T18:41:46;8.30;99.90
56861;DHT22;42744;51.094;3.490;2023-02-01T18:44:14;8.30;99.90
56861;DHT22;42744;51.094;3.490;2023-02-01T18:46:41;8.30;99.90
56861;DHT22;42744;51.094;3.490;2023-02-01T18:49:07;8.30;99.90
56861;DHT22;42744;51.094;3.490;2023-02-01T18:51:33;8.30;99.90
56861;DHT22;42744;51.094;3.490;2023-02-01T18:54:02;8.30;99.90
56861;DHT22;42744;51.094;3.490;2023-02-01T18:56:28;8.30;99.90
56861;DHT22;42744;51.094;3.490;2023-02-01T18:58:54;8.30;99.90
56861;DHT22;42744;51.094;3.490;2023-02-01T19:01:22;8.30;99.90
56861;DHT22;42744;51.094;3.490;2023-02-01T19:03:49;8.20;99.90
56861;DHT22;42744;51.094;3.490;2023-02-01T19:06:15;8.20;99.90
56861;DHT22;42744;51.094;3.490;2023-02-01T19:08:46;8.20;99.90